createdAt,value
2022-10-12T00:03:14.253Z,14.75
2022-10-12T00:08:15.961Z,13.45
2022-10-12T00:13:17.669Z,14.55
2022-10-12T00:18:19.849Z,13.52
2022-10-12T00:23:21.608Z,13.90
2022-10-12T00:28:23.417Z,13.27
2022-10-12T00:33:25.457Z,13.13
2022-10-12T00:38:27.252Z,13.15
2022-10-12T00:43:38.932Z,12.30
2022-10-12T00:48:41.916Z,13.35
2022-10-12T00:53:49.456Z,13.15
2022-10-12T00:58:52.240Z,13.93
2022-10-12T01:03:54.095Z,13.68
2022-10-12T01:08:56.857Z,13.50
2022-10-12T01:13:58.769Z,13.32
2022-10-12T01:19:38.009Z,13.27
2022-10-12T01:25:02.087Z,13.93
2022-10-12T01:30:23.867Z,14.18
2022-10-12T01:35:39.694Z,14.48
2022-10-12T01:41:20.273Z,19.80
2022-10-12T01:46:24.840Z,14.52
2022-10-12T01:51:41.655Z,14.30
2022-10-12T01:57:04.546Z,14.45
2022-10-12T02:02:13.706Z,14.30
2022-10-12T02:12:28.908Z,13.63
2022-10-12T02:17:32.204Z,13.70
2022-10-12T02:22:37.044Z,14.18
2022-10-12T02:27:42.945Z,13.23
2022-10-12T02:32:54.387Z,12.88
2022-10-12T02:38:03.601Z,13.93
2022-10-12T02:48:23.218Z,13.10
2022-10-12T02:53:28.518Z,13.93
2022-10-12T02:58:30.259Z,12.95
2022-10-12T03:03:32.055Z,13.15
2022-10-12T03:08:33.865Z,12.82
2022-10-12T03:13:35.718Z,13.13
2022-10-12T03:18:38.258Z,12.48
2022-10-12T03:23:40.045Z,12.25
2022-10-12T03:28:41.902Z,12.45
2022-10-12T03:33:43.692Z,12.40
2022-10-12T03:38:45.403Z,12.15
2022-10-12T03:43:47.114Z,10.90
2022-10-12T03:48:48.876Z,11.48
2022-10-12T03:53:50.634Z,12.45
2022-10-12T03:58:52.368Z,11.50
2022-10-12T04:03:54.159Z,11.52
2022-10-12T04:08:56.078Z,11.90
2022-10-12T04:13:57.895Z,10.75
2022-10-12T04:18:59.609Z,10.60
2022-10-12T04:24:01.965Z,11.73
2022-10-12T04:29:03.960Z,11.85
2022-10-12T04:34:05.895Z,11.60
2022-10-12T04:39:08.848Z,11.18
2022-10-12T04:44:10.742Z,11.52
2022-10-12T04:49:12.511Z,12.30
2022-10-12T04:54:14.199Z,11.73
2022-10-12T04:59:16.069Z,11.00
2022-10-12T05:04:17.881Z,12.13
2022-10-12T05:09:19.658Z,12.13
2022-10-12T05:14:21.401Z,12.55
2022-10-12T05:19:23.101Z,11.00
2022-10-12T05:24:25.997Z,11.00
2022-10-12T05:29:27.726Z,11.88
2022-10-12T05:34:29.533Z,12.13
2022-10-12T05:39:31.288Z,9.98
2022-10-12T05:44:32.994Z,9.90
2022-10-12T05:49:36.810Z,9.43
2022-10-12T05:54:38.940Z,9.55
2022-10-12T05:59:41.117Z,8.88
2022-10-12T06:04:42.907Z,9.40
2022-10-12T06:09:44.799Z,8.73
2022-10-12T06:14:46.572Z,8.98
2022-10-12T06:19:50.609Z,9.45
2022-10-12T06:24:52.574Z,9.68
2022-10-12T06:29:54.277Z,9.30
2022-10-12T06:34:56.014Z,9.73
2022-10-12T06:39:57.945Z,10.73
2022-10-12T06:44:59.690Z,9.95
2022-10-12T06:50:01.488Z,9.60
2022-10-12T06:55:04.797Z,8.60
2022-10-12T07:00:08.367Z,11.57
2022-10-12T07:05:10.246Z,10.30
2022-10-12T07:10:13.838Z,10.57
2022-10-12T07:15:15.719Z,9.73
2022-10-12T07:20:17.530Z,10.55
2022-10-12T07:25:19.315Z,9.98
2022-10-12T07:30:21.026Z,9.13
2022-10-12T07:35:24.738Z,10.15
2022-10-12T07:40:26.526Z,10.07
2022-10-12T07:45:28.743Z,8.45
2022-10-12T07:50:30.465Z,8.45
2022-10-12T07:55:32.393Z,8.23
2022-10-12T08:00:34.281Z,7.72
2022-10-12T08:05:38.031Z,7.38
2022-10-12T08:10:39.974Z,6.63
2022-10-12T08:15:47.980Z,7.43
2022-10-12T08:20:51.988Z,5.90
2022-10-12T08:25:56.630Z,4.32
2022-10-12T08:30:58.397Z,4.60
2022-10-12T08:36:05.333Z,4.45
2022-10-12T08:41:46.089Z,4.85
2022-10-12T08:46:49.012Z,4.22
2022-10-12T08:51:54.562Z,4.78
2022-10-12T08:56:57.843Z,4.75
2022-10-12T09:02:13.099Z,4.68
2022-10-12T09:07:31.074Z,4.47
2022-10-12T09:12:44.873Z,4.32
2022-10-12T09:17:52.545Z,5.18
2022-10-12T09:23:19.696Z,5.22
2022-10-12T09:28:34.590Z,4.25
2022-10-12T09:33:54.034Z,4.40
2022-10-12T09:39:00.661Z,4.28
2022-10-12T09:44:05.259Z,3.22
2022-10-12T09:49:07.284Z,3.80
2022-10-12T09:54:22.434Z,4.05
2022-10-12T09:59:32.938Z,3.25
2022-10-12T10:04:34.789Z,2.83
2022-10-12T10:09:36.844Z,2.67
2022-10-12T10:14:38.786Z,3.53
2022-10-12T10:19:40.732Z,3.03
2022-10-12T10:24:45.121Z,2.50
2022-10-12T10:29:48.449Z,2.33
2022-10-12T10:35:22.936Z,2.47
2022-10-12T10:40:30.217Z,2.20
2022-10-12T10:51:05.106Z,2.60
2022-10-12T10:56:23.069Z,2.03
2022-10-12T11:01:32.862Z,2.03
2022-10-12T11:06:41.706Z,2.40
2022-10-12T11:11:51.344Z,2.08
2022-10-12T11:16:58.329Z,2.17
2022-10-12T11:22:20.970Z,1.80
2022-10-12T11:27:34.074Z,1.83
2022-10-12T11:32:40.068Z,2.55
2022-10-12T11:38:26.018Z,2.08
2022-10-12T11:43:36.033Z,2.35
2022-10-12T11:48:59.754Z,2.33
2022-10-12T11:54:34.593Z,2.10
2022-10-12T11:59:55.457Z,1.77
2022-10-12T12:04:58.883Z,1.60
2022-10-12T12:10:22.948Z,2.25
2022-10-12T12:15:24.742Z,1.95
2022-10-12T12:20:46.919Z,1.67
2022-10-12T12:26:05.999Z,2.22
2022-10-12T12:31:17.503Z,2.00
2022-10-12T12:36:33.137Z,1.98
2022-10-12T12:42:01.375Z,2.17
2022-10-12T12:47:08.453Z,2.10
2022-10-12T12:52:27.126Z,2.10
2022-10-12T12:57:53.623Z,1.80
2022-10-12T13:03:46.914Z,2.30
2022-10-12T13:08:51.227Z,2.10
2022-10-12T13:14:16.346Z,2.30
2022-10-12T13:19:22.143Z,2.75
2022-10-12T13:24:50.412Z,2.00
2022-10-12T13:30:02.854Z,2.25
2022-10-12T13:35:38.083Z,2.00
2022-10-12T13:40:58.709Z,1.80
2022-10-12T13:46:01.348Z,1.75
2022-10-12T13:51:05.141Z,1.90
2022-10-12T13:56:17.933Z,2.08
2022-10-12T14:01:19.668Z,3.67
2022-10-12T14:06:37.922Z,1.80
2022-10-12T14:11:40.697Z,2.00
2022-10-12T14:16:42.727Z,1.92
2022-10-12T14:21:47.676Z,1.80
2022-10-12T14:27:02.861Z,2.65
2022-10-12T14:32:42.015Z,2.13
2022-10-12T14:37:44.057Z,1.95
2022-10-12T14:43:00.158Z,2.10
2022-10-12T14:48:03.296Z,1.75
2022-10-12T14:53:10.621Z,3.10
2022-10-12T14:58:16.884Z,2.90
2022-10-12T15:03:20.148Z,2.35
2022-10-12T15:08:21.889Z,1.63
2022-10-12T15:13:23.688Z,1.65
2022-10-12T15:18:25.442Z,1.80
2022-10-12T15:23:27.130Z,2.13
2022-10-12T15:28:32.175Z,2.67
2022-10-12T15:33:34.014Z,2.40
2022-10-12T15:38:38.145Z,2.45
2022-10-12T15:43:42.046Z,2.78
2022-10-12T15:48:46.325Z,2.00
2022-10-12T15:53:48.288Z,2.42
2022-10-12T15:58:50.203Z,3.33
2022-10-12T16:03:52.038Z,2.50
2022-10-12T16:08:53.942Z,2.00
2022-10-12T16:13:56.844Z,3.10
2022-10-12T16:18:59.103Z,2.67
2022-10-12T16:24:01.357Z,3.40
2022-10-12T16:29:03.484Z,3.40
2022-10-12T16:34:05.213Z,3.00
2022-10-12T16:39:07.186Z,2.92
2022-10-12T16:44:08.918Z,3.08
2022-10-12T16:49:10.643Z,3.40
2022-10-12T16:54:12.420Z,3.45
2022-10-12T16:59:14.213Z,3.25
2022-10-12T17:04:15.912Z,3.30
2022-10-12T17:09:17.654Z,4.35
2022-10-12T17:14:19.502Z,4.22
2022-10-12T17:19:27.499Z,33.08
2022-10-12T17:24:31.063Z,5.35
2022-10-12T17:29:36.371Z,4.80
2022-10-12T17:34:40.848Z,4.45
2022-10-12T17:39:46.204Z,4.45
2022-10-12T17:44:48.032Z,4.85
2022-10-12T17:49:49.863Z,5.35
2022-10-12T17:54:51.562Z,4.35
2022-10-12T17:59:53.279Z,5.57
2022-10-12T18:04:55.187Z,5.55
2022-10-12T18:15:07.333Z,4.95
2022-10-12T18:20:09.665Z,4.50
2022-10-12T18:25:11.373Z,5.03
2022-10-12T18:30:13.355Z,15.38
2022-10-12T18:35:15.136Z,6.28
2022-10-12T18:40:17.219Z,4.57
2022-10-12T18:45:19.125Z,4.80
2022-10-12T18:50:21.193Z,4.57
2022-10-12T18:55:23.507Z,4.72
2022-10-12T19:00:25.254Z,9.20
2022-10-12T19:05:27.125Z,4.53
2022-10-12T19:10:28.921Z,4.85
2022-10-12T19:15:30.717Z,4.90
2022-10-12T19:20:35.837Z,6.20
2022-10-12T19:25:38.417Z,5.70
2022-10-12T19:30:40.555Z,5.80
2022-10-12T19:35:42.311Z,5.07
2022-10-12T19:40:44.097Z,5.85
2022-10-12T19:45:46.191Z,5.53
2022-10-12T19:50:47.925Z,5.57
2022-10-12T19:55:51.170Z,6.10
2022-10-12T20:00:53.117Z,5.10
2022-10-12T20:05:55.109Z,5.05
2022-10-12T20:10:56.844Z,4.68
2022-10-12T20:15:58.951Z,4.93
2022-10-12T20:21:04.266Z,5.05
2022-10-12T20:26:08.185Z,5.70
2022-10-12T20:31:10.253Z,5.25
2022-10-12T20:36:20.594Z,5.38
2022-10-12T20:41:23.681Z,5.93
2022-10-12T20:46:26.983Z,5.60
2022-10-12T20:51:36.602Z,5.55
2022-10-12T20:56:40.927Z,5.30
2022-10-12T21:01:42.740Z,5.88
2022-10-12T21:06:44.457Z,5.00
2022-10-12T21:11:49.351Z,5.13
2022-10-12T21:16:53.391Z,4.82
2022-10-12T21:21:55.466Z,4.20
2022-10-12T21:26:57.173Z,4.90
2022-10-12T21:31:58.887Z,5.25
2022-10-12T21:37:00.605Z,5.20
2022-10-12T21:42:02.357Z,5.50
2022-10-12T21:47:04.278Z,5.72
2022-10-12T21:52:05.968Z,5.72
2022-10-12T21:57:07.669Z,5.95
2022-10-12T22:02:09.366Z,5.35
2022-10-12T22:07:14.581Z,4.90
2022-10-12T22:12:19.089Z,5.32
2022-10-12T22:17:20.958Z,5.05
2022-10-12T22:22:22.726Z,4.93
2022-10-12T22:27:24.442Z,5.28
2022-10-12T22:32:26.757Z,5.32
2022-10-12T22:37:28.523Z,5.50
2022-10-12T22:42:30.416Z,4.93
2022-10-12T22:47:33.918Z,6.13
2022-10-12T22:52:36.081Z,5.72
2022-10-12T22:57:37.825Z,5.38
2022-10-12T23:02:39.521Z,5.20
2022-10-12T23:07:41.219Z,6.38
2022-10-12T23:12:42.980Z,7.20
2022-10-12T23:17:44.732Z,7.40
2022-10-12T23:22:46.438Z,6.90
2022-10-12T23:27:48.122Z,6.38
2022-10-12T23:32:49.840Z,5.93
2022-10-12T23:37:51.556Z,5.90
2022-10-12T23:42:53.369Z,5.45
2022-10-12T23:47:55.078Z,5.90
2022-10-12T23:52:56.774Z,5.78
2022-10-12T23:57:58.508Z,5.13
